Terminal Aerodrome Forecast
Issued by NWS

Home | Current Version | Previous Version | Text Only | Print | Product List | Glossary On
Versions: 1 2 3 4 5 6 7 8 9 10 11 12 13 14
152
FTUS45 KTFX 191907 RRA
TAFGTF
TAF
KGTF 191907Z 1919/2018 25016G25KT P6SM SCT050 BKN070
     FM200600 21018G29KT P6SM SCT040 BKN070=

USA.gov is the U.S. government's official web portal to all federal, state and local government web resources and services.